Řízení letového provozu České republiky
Letiste: LKCV Aktualizace: 19.09.2018 18:01:06  UTC
 METAR LKCV 19.09. 18:00 ...
METAR LKCV 191800Z 20005KT CAVOK 21/15 Q1020 NOSIG RMK BLU BLU=
 TAF LKCV 19.09. 17:00 ...
TAF LKCV 191700Z 1918/2018 20006KT CAVOK      BECMG 1922/2000 12005KT=